Time;durP1;ratioP1;P1;durP2;ratioP2;P2;SDS_P1;SDS_P2;PMS_P1;PMS_P2;Temp;Humidity;BMP_temperature;BMP_pressure;BME280_temperature;BME280_humidity;BME280_pressure;Samples;Min_cycle;Max_cycle;Signal;HPM_P1;HPM_P2
2022/10/17 00:01:42;;;;;;;;;10.75;10.00;;;;;18.85;83.18;101127.03;5018344;28;45314;-51
2022/10/17 00:04:07;;;;;;;;;10.75;8.75;;;;;18.85;83.11;101127.03;5018184;28;45476;-48
2022/10/17 00:06:32;;;;;;;;;10.50;9.50;;;;;18.85;82.88;101127.88;5018638;28;45233;-50
2022/10/17 00:08:58;;;;;;;;;10.75;10.75;;;;;18.85;82.94;101137.81;5018445;28;45345;-48
2022/10/17 00:11:23;;;;;;;;;11.00;11.00;;;;;18.88;82.63;101137.44;5018119;28;46893;-50
2022/10/17 00:13:52;;;;;;;;;8.50;8.50;;;;;18.89;82.61;101133.72;5017372;28;45416;-49
2022/10/17 00:16:29;;;;;;;;;10.25;9.50;;;;;18.89;82.28;101134.53;5018404;28;45385;-46
2022/10/17 00:18:54;;;;;;;;;12.75;9.75;;;;;18.89;82.53;101144.50;5018644;28;45258;-49
2022/10/17 00:21:21;;;;;;;;;14.00;12.75;;;;;18.91;82.25;101147.81;5018047;28;45939;-49
2022/10/17 00:23:47;;;;;;;;;10.00;8.00;;;;;18.86;82.36;101139.47;5018126;28;45496;-48
2022/10/17 00:26:12;;;;;;;;;13.50;9.75;;;;;18.93;82.23;101143.91;5018033;28;45316;-47
2022/10/17 00:28:38;;;;;;;;;13.00;13.00;;;;;18.92;82.10;101138.72;5018264;28;45426;-48
2022/10/17 00:31:04;;;;;;;;;8.25;8.00;;;;;18.90;81.89;101144.28;5018070;28;47197;-48
2022/10/17 00:33:31;;;;;;;;;14.60;9.20;;;;;18.90;81.92;101151.56;5017924;28;45459;-49
2022/10/17 00:36:06;;;;;;;;;10.25;9.75;;;;;18.86;81.88;101150.25;5017968;28;45439;-48
2022/10/17 00:38:31;;;;;;;;;15.75;12.75;;;;;18.88;81.87;101153.63;5018232;28;45377;-46
2022/10/17 00:40:57;;;;;;;;;9.00;9.00;;;;;18.87;81.73;101155.44;5017560;28;45984;-47
2022/10/17 00:43:22;;;;;;;;;10.00;8.75;;;;;18.87;81.79;101165.41;5017843;28;45794;-49
2022/10/17 00:45:47;;;;;;;;;10.75;8.75;;;;;18.88;81.49;101169.78;5017922;28;45332;-47
2022/10/17 00:48:14;;;;;;;;;13.75;11.00;;;;;18.86;81.33;101164.56;5017889;28;45283;-47
2022/10/17 00:50:43;;;;;;;;;13.25;10.50;;;;;18.88;81.15;101162.53;5017610;28;46224;-49
2022/10/17 00:53:09;;;;;;;;;13.25;13.00;;;;;18.87;81.16;101152.75;5017450;28;45502;-47
2022/10/17 00:55:43;;;;;;;;;11.00;10.00;;;;;18.86;80.88;101152.97;5017469;28;45377;-50
2022/10/17 00:58:09;;;;;;;;;10.75;9.75;;;;;18.87;80.66;101149.22;5017871;28;45451;-49
2022/10/17 01:00:35;;;;;;;;;9.00;9.00;;;;;18.90;80.74;101160.47;5017442;28;46256;-50
2022/10/17 01:03:01;;;;;;;;;11.40;9.20;;;;;18.90;80.44;101165.03;5017508;28;45262;-49
2022/10/17 01:05:27;;;;;;;;;11.50;10.00;;;;;18.90;80.48;101156.94;5017462;28;45307;-49
2022/10/17 01:07:53;;;;;;;;;13.75;11.00;;;;;18.90;80.54;101165.03;5017520;28;45567;-47
2022/10/17 01:10:19;;;;;;;;;11.00;11.00;;;;;18.90;80.49;101163.16;5017110;28;45348;-50
2022/10/17 01:13:06;;;;;;;;;10.00;10.00;;;;;18.90;80.23;101156.94;4999053;28;45615;-47
2022/10/17 01:15:51;;;;;;;;;8.00;8.00;;;;;18.89;80.25;101139.94;5016726;28;45447;-50
2022/10/17 01:18:16;;;;;;;;;7.25;7.25;;;;;18.89;79.90;101150.72;5017475;28;45409;-47
2022/10/17 01:21:04;;;;;;;;;12.50;9.75;;;;;18.87;80.07;101146.53;5017243;28;46086;-49
2022/10/17 01:23:53;;;;;;;;;8.00;7.60;;;;;18.86;79.51;101161.03;5017177;28;45289;-49
2022/10/17 01:26:34;;;;;;;;;10.00;9.00;;;;;18.83;79.58;101159.56;5017288;28;45411;-49
2022/10/17 01:29:08;;;;;;;;;11.75;9.25;;;;;18.83;79.43;101164.94;5017520;28;45259;-48
2022/10/17 01:31:46;;;;;;;;;9.00;9.00;;;;;18.78;79.27;101156.59;5016906;28;45381;-49
2022/10/17 01:34:29;;;;;;;;;11.50;9.75;;;;;18.82;79.43;101168.66;5017119;28;45384;-50
2022/10/17 01:37:29;;;;;;;;;6.50;5.75;;;;;18.80;79.55;101186.06;5017046;28;45443;-50
2022/10/17 01:40:10;;;;;;;;;4.50;3.75;;;;;18.81;79.09;101176.97;5017186;28;45344;-50
2022/10/17 01:42:46;;;;;;;;;9.25;9.25;;;;;18.81;79.04;101171.56;5016839;28;46572;-49
2022/10/17 01:45:20;;;;;;;;;12.00;9.50;;;;;18.79;79.20;101174.44;5016883;28;45263;-51
2022/10/17 01:47:49;;;;;;;;;8.75;8.50;;;;;18.79;78.78;101176.28;5017289;28;45286;-51
2022/10/17 01:50:24;;;;;;;;;7.50;7.50;;;;;18.78;78.51;101185.41;5017318;28;45351;-47
2022/10/17 01:52:54;;;;;;;;;10.75;9.25;;;;;18.75;78.41;101183.09;4998898;28;46285;-48
2022/10/17 01:55:26;;;;;;;;;14.00;10.75;;;;;18.72;78.31;101186.19;5016557;28;45393;-50
2022/10/17 01:57:58;;;;;;;;;9.50;8.25;;;;;18.71;78.27;101185.34;5016891;28;45458;-50
2022/10/17 02:00:26;;;;;;;;;8.50;7.75;;;;;18.68;78.42;101185.69;5016801;28;45247;-49
2022/10/17 02:02:57;;;;;;;;;10.25;7.75;;;;;18.68;78.42;101185.69;5016664;28;45320;-50
2022/10/17 02:05:31;;;;;;;;;11.50;7.50;;;;;18.63;78.41;101182.75;5016599;28;45415;-49
2022/10/17 02:07:57;;;;;;;;;11.75;9.75;;;;;18.64;78.47;101190.63;5016667;28;45227;-47
2022/10/17 02:10:34;;;;;;;;;7.25;7.25;;;;;18.63;78.34;101186.25;5016693;28;45449;-50
2022/10/17 02:13:12;;;;;;;;;10.25;8.75;;;;;18.63;78.45;101182.75;5016553;28;46106;-48
2022/10/17 02:16:02;;;;;;;;;4.20;4.20;;;;;18.62;78.22;101178.34;5016605;28;45328;-49
2022/10/17 02:18:52;;;;;;;;;10.75;7.50;;;;;18.60;78.35;101177.72;5016687;28;45318;-48
2022/10/17 02:21:29;;;;;;;;;11.25;10.00;;;;;18.60;78.42;101188.50;4998896;28;45500;-50
2022/10/17 02:24:00;;;;;;;;;13.50;8.50;;;;;18.59;78.35;101179.59;5016521;28;45321;-50
2022/10/17 02:26:30;;;;;;;;;10.00;8.75;;;;;18.59;78.52;101176.06;5018001;28;45519;-50
2022/10/17 02:29:20;;;;;;;;;11.00;9.00;;;;;18.57;78.43;101175.41;5020283;28;45265;-49
2022/10/17 02:32:10;;;;;;;;;7.25;6.75;;;;;18.56;78.44;101169.16;5021535;28;45428;-47
2022/10/17 02:34:44;;;;;;;;;7.50;7.50;;;;;18.54;78.51;101162.28;5020978;28;45385;-47
2022/10/17 02:37:13;;;;;;;;;11.00;8.25;;;;;18.53;78.59;101149.84;5020756;28;45235;-48
2022/10/17 02:39:41;;;;;;;;;6.25;6.25;;;;;18.50;78.87;101155.59;5019746;28;45349;-50
2022/10/17 02:42:10;;;;;;;;;10.25;9.00;;;;;18.48;78.88;101165.75;5019858;28;45384;-49
2022/10/17 02:44:40;;;;;;;;;12.00;10.00;;;;;18.47;78.91;101159.53;5019717;28;45459;-49
2022/10/17 02:47:32;;;;;;;;;8.25;8.00;;;;;18.42;78.87;101154.72;5019570;28;45453;-50
2022/10/17 02:49:57;;;;;;;;;9.75;9.00;;;;;18.43;79.15;101152.84;5019607;28;45368;-47
2022/10/17 02:52:27;;;;;;;;;11.75;8.00;;;;;18.48;79.01;101168.44;5019899;28;45412;-48
2022/10/17 02:54:58;;;;;;;;;12.50;8.00;;;;;18.49;78.89;101178.19;5019354;28;46389;-46
2022/10/17 02:57:37;;;;;;;;;11.25;9.50;;;;;18.51;78.75;101179.69;5019500;28;45480;-49
2022/10/17 03:00:06;;;;;;;;;8.00;7.25;;;;;18.55;78.67;101186.38;5019837;28;45330;-48
2022/10/17 03:02:44;;;;;;;;;8.00;8.00;;;;;18.58;78.50;101187.84;5020257;28;45519;-49
2022/10/17 03:05:12;;;;;;;;;9.50;7.75;;;;;18.58;78.30;101191.38;5019864;28;46183;-50
2022/10/17 03:07:37;;;;;;;;;12.00;9.25;;;;;18.59;78.46;101184.13;5019784;28;45350;-49
2022/10/17 03:10:04;;;;;;;;;8.50;8.50;;;;;18.55;78.25;101175.59;5019770;28;45349;-49
2022/10/17 03:12:29;;;;;;;;;11.00;10.75;;;;;18.52;78.03;101183.22;5019629;28;45511;-48
2022/10/17 03:14:55;;;;;;;;;11.75;9.50;;;;;18.50;78.13;101179.84;5019005;28;46101;-49
2022/10/17 03:17:20;;;;;;;;;7.75;7.75;;;;;18.51;77.96;101187.75;5019348;28;45341;-47
2022/10/17 03:19:45;;;;;;;;;10.75;7.75;;;;;18.49;78.08;101181.72;5019290;28;45248;-48
2022/10/17 03:22:11;;;;;;;;;7.00;5.75;;;;;18.45;77.84;101180.41;5019583;28;45223;-51
2022/10/17 03:24:36;;;;;;;;;9.50;8.50;;;;;18.41;77.86;101179.97;5018674;28;47081;-50
2022/10/17 03:27:02;;;;;;;;;9.00;8.50;;;;;18.37;77.63;101183.22;5018643;28;45301;-49
2022/10/17 03:29:27;;;;;;;;;12.50;9.50;;;;;18.36;77.77;101189.63;5019049;28;45317;-49
2022/10/17 03:31:52;;;;;;;;;7.75;7.25;;;;;18.33;77.70;101193.56;5019073;28;45230;-50
2022/10/17 03:34:18;;;;;;;;;10.75;7.00;;;;;18.31;77.51;101202.81;5018953;28;45286;-51
2022/10/17 03:36:44;;;;;;;;;10.00;7.00;;;;;18.29;77.49;101205.72;5018703;28;45586;-49
2022/10/17 03:39:09;;;;;;;;;7.75;7.00;;;;;18.29;77.53;101207.56;5018180;28;45408;-47
2022/10/17 03:41:34;;;;;;;;;8.00;8.00;;;;;18.30;77.33;101206.56;5000937;28;45433;-48
2022/10/17 03:44:00;;;;;;;;;10.25;6.50;;;;;18.24;76.98;101210.78;5018441;28;47572;-48
2022/10/17 03:46:25;;;;;;;;;8.75;7.00;;;;;18.36;76.59;101230.03;5018430;28;45297;-51
2022/10/17 03:48:50;;;;;;;;;10.75;10.75;;;;;18.37;76.51;101243.34;5018743;28;45318;-47
2022/10/17 03:51:16;;;;;;;;;13.25;13.25;;;;;18.33;76.17;101225.00;5018740;28;45264;-49
2022/10/17 03:53:41;;;;;;;;;13.00;11.50;;;;;18.41;76.37;101243.78;5018639;28;46052;-49
2022/10/17 03:56:14;;;;;;;;;9.75;9.00;;;;;18.34;75.90;101234.78;5017922;28;45329;-48
2022/10/17 03:58:40;;;;;;;;;15.25;11.25;;;;;18.43;75.88;101250.66;5018751;28;45480;-47
2022/10/17 04:01:08;;;;;;;;;13.75;11.00;;;;;18.43;75.76;101256.03;5018777;28;45353;-48
2022/10/17 04:03:33;;;;;;;;;9.25;7.50;;;;;18.44;75.50;101246.09;5018312;28;45320;-48
2022/10/17 04:05:59;;;;;;;;;9.25;8.75;;;;;18.44;75.12;101251.50;5018481;28;45385;-49
2022/10/17 04:08:25;;;;;;;;;8.00;8.00;;;;;18.35;75.30;101239.13;5018448;28;45243;-50
2022/10/17 04:10:51;;;;;;;;;15.25;10.25;;;;;18.48;74.84;101263.56;5018548;28;45432;-50
2022/10/17 04:13:16;;;;;;;;;16.25;11.00;;;;;18.48;74.95;101258.19;5018190;28;46176;-47
2022/10/17 04:15:41;;;;;;;;;10.25;8.75;;;;;18.50;74.88;101250.75;5018333;28;45433;-48
2022/10/17 04:18:07;;;;;;;;;11.00;8.25;;;;;18.49;74.52;101251.75;5018189;28;45314;-49
2022/10/17 04:20:34;;;;;;;;;9.25;8.25;;;;;18.45;74.42;101245.91;5018351;28;45296;-49
2022/10/17 04:22:59;;;;;;;;;9.50;9.50;;;;;18.45;74.63;101245.06;5018053;28;46096;-47
2022/10/17 04:25:24;;;;;;;;;11.00;9.00;;;;;18.49;74.15;101251.75;5018187;28;45349;-48
2022/10/17 04:27:50;;;;;;;;;12.00;9.00;;;;;18.48;74.20;101255.47;5017975;28;45248;-49
2022/10/17 04:30:16;;;;;;;;;8.25;8.25;;;;;18.49;74.02;101261.69;5018399;28;45314;-50
2022/10/17 04:32:41;;;;;;;;;8.25;7.75;;;;;18.48;73.99;101260.88;5017692;28;46192;-49
2022/10/17 04:35:07;;;;;;;;;9.25;6.50;;;;;18.39;73.96;101251.22;5017896;28;45443;-47
2022/10/17 04:37:33;;;;;;;;;9.50;8.75;;;;;18.49;74.06;101278.69;5017933;28;45329;-50
2022/10/17 04:39:58;;;;;;;;;9.00;8.00;;;;;18.49;73.92;101280.56;5017988;28;45543;-47
2022/10/17 04:42:23;;;;;;;;;8.00;8.00;;;;;18.49;74.14;101284.09;5017631;28;46054;-47
2022/10/17 04:44:49;;;;;;;;;7.75;6.00;;;;;18.44;74.13;101273.88;5017657;28;45237;-46
2022/10/17 04:47:14;;;;;;;;;11.00;10.00;;;;;18.50;73.81;101285.78;5017796;28;45366;-50
2022/10/17 04:49:39;;;;;;;;;13.25;8.75;;;;;18.53;73.61;101284.56;5016926;28;45404;-51
2022/10/17 04:52:05;;;;;;;;;9.25;9.00;;;;;18.51;73.53;101281.22;5017225;28;47159;-49
2022/10/17 04:54:30;;;;;;;;;13.00;10.25;;;;;18.53;73.65;101288.09;5017598;28;45400;-50
2022/10/17 04:56:55;;;;;;;;;13.75;10.25;;;;;18.55;73.58;101309.47;5017242;28;45234;-46
2022/10/17 04:59:21;;;;;;;;;12.50;9.50;;;;;18.56;73.29;101300.38;5017708;28;45385;-49
2022/10/17 05:01:48;;;;;;;;;9.75;9.00;;;;;18.60;73.21;101301.66;5017563;28;46187;-46
2022/10/17 05:04:13;;;;;;;;;10.75;9.00;;;;;18.61;73.38;101309.56;5017370;28;45304;-50
2022/10/17 05:06:38;;;;;;;;;12.25;9.50;;;;;18.61;73.27;101309.56;5017685;28;45333;-47
2022/10/17 05:09:04;;;;;;;;;13.50;11.50;;;;;18.49;73.18;101294.88;5017714;28;45511;-48
2022/10/17 05:11:29;;;;;;;;;13.75;8.50;;;;;18.60;73.22;101315.13;5017199;28;46965;-49
2022/10/17 05:13:59;;;;;;;;;9.00;9.00;;;;;18.61;73.08;101325.72;5017308;28;45360;-47
2022/10/17 05:16:26;;;;;;;;;11.75;9.00;;;;;18.59;73.23;101327.78;5017406;28;45291;-49
2022/10/17 05:18:53;;;;;;;;;10.00;6.50;;;;;18.56;73.35;101322.75;5017575;28;45226;-46
2022/10/17 05:21:20;;;;;;;;;9.75;9.00;;;;;18.59;73.38;101326.94;5017130;28;47111;-48
2022/10/17 05:23:45;;;;;;;;;13.50;9.75;;;;;18.57;73.38;101331.66;5016984;28;45460;-47
2022/10/17 05:26:11;;;;;;;;;10.75;9.25;;;;;18.53;73.35;101323.13;5017405;28;45757;-47
2022/10/17 05:28:37;;;;;;;;;9.50;9.25;;;;;18.58;73.72;101331.50;5017361;28;45505;-47
2022/10/17 05:31:04;;;;;;;;;13.25;9.00;;;;;18.57;73.78;101319.03;5017493;28;46259;-48
2022/10/17 05:33:29;;;;;;;;;10.20;7.00;;;;;18.58;73.24;101320.72;5017215;28;45316;-47
2022/10/17 05:35:55;;;;;;;;;11.25;8.50;;;;;18.58;73.98;101323.41;5017051;28;45291;-50
2022/10/17 05:38:20;;;;;;;;;9.00;9.00;;;;;18.56;74.05;101344.31;5017346;28;45270;-49
2022/10/17 05:40:45;;;;;;;;;8.00;7.25;;;;;18.52;73.97;101343.00;5016957;28;45202;-49
2022/10/17 05:43:10;;;;;;;;;10.75;7.25;;;;;18.53;73.64;101327.66;5016855;28;45400;-47
2022/10/17 05:45:36;;;;;;;;;13.50;9.75;;;;;18.54;74.01;101338.28;5017268;28;45353;-47
2022/10/17 05:48:02;;;;;;;;;12.00;10.00;;;;;18.54;73.87;101337.41;5017278;28;45301;-46
2022/10/17 05:50:27;;;;;;;;;8.25;8.25;;;;;18.48;73.91;101336.31;5016190;28;45297;-48
2022/10/17 05:52:53;;;;;;;;;9.50;7.25;;;;;18.49;74.13;101321.81;5016748;28;45428;-46
2022/10/17 05:55:19;;;;;;;;;8.25;5.75;;;;;18.51;73.93;101318.94;5016882;28;45379;-48
2022/10/17 05:57:44;;;;;;;;;7.75;7.75;;;;;18.52;74.27;101321.44;5017170;28;45459;-44
2022/10/17 06:00:10;;;;;;;;;9.25;7.25;;;;;18.52;74.38;101329.53;5016762;28;45542;-46
2022/10/17 06:02:36;;;;;;;;;7.00;7.00;;;;;18.50;74.55;101318.13;5020301;28;45353;-47
2022/10/17 06:05:01;;;;;;;;;13.00;8.75;;;;;18.49;74.83;101321.81;5020456;28;45597;-49
2022/10/17 06:07:26;;;;;;;;;10.00;8.00;;;;;18.48;74.91;101320.13;5020380;28;45334;-46
2022/10/17 06:09:52;;;;;;;;;9.00;7.25;;;;;18.47;74.65;101312.25;5020273;28;46254;-50
2022/10/17 06:12:17;;;;;;;;;8.50;7.50;;;;;18.41;75.18;101308.41;5020041;28;45327;-50
2022/10/17 06:14:42;;;;;;;;;6.50;5.25;;;;;18.42;75.01;101321.72;5020126;28;45572;-47
2022/10/17 06:17:08;;;;;;;;;9.00;7.50;;;;;18.43;75.48;101331.47;5020292;28;45429;-49
2022/10/17 06:19:33;;;;;;;;;10.25;9.00;;;;;18.41;75.45;101328.13;5020186;28;45335;-49
2022/10/17 06:21:58;;;;;;;;;11.25;9.25;;;;;18.40;75.42;101329.13;5020135;28;45471;-52
2022/10/17 06:24:24;;;;;;;;;13.50;9.00;;;;;18.38;75.62;101327.66;5020177;28;45455;-46
2022/10/17 06:26:50;;;;;;;;;10.25;8.75;;;;;18.41;75.50;101332.66;5020364;28;45313;-49
2022/10/17 06:29:15;;;;;;;;;7.00;6.00;;;;;18.42;75.38;101328.97;5019573;28;46227;-50
2022/10/17 06:31:41;;;;;;;;;14.75;9.50;;;;;18.34;75.59;101337.13;5019952;28;45230;-48
2022/10/17 06:34:06;;;;;;;;;12.00;12.00;;;;;18.43;75.79;101365.66;5002090;28;45320;-51
2022/10/17 06:36:31;;;;;;;;;12.00;11.00;;;;;18.44;75.63;101367.31;5019954;28;45468;-50
2022/10/17 06:38:57;;;;;;;;;11.25;9.00;;;;;18.45;75.33;101380.59;5019817;28;45382;-50
2022/10/17 06:41:22;;;;;;;;;14.00;13.25;;;;;18.48;75.72;101373.19;5019748;28;45388;-47
2022/10/17 06:43:47;;;;;;;;;11.50;8.50;;;;;18.46;75.49;101376.06;5019942;28;45389;-48
2022/10/17 06:46:17;;;;;;;;;13.75;13.75;;;;;18.47;75.63;101380.44;5020037;28;45479;-50
2022/10/17 06:48:44;;;;;;;;;9.25;8.50;;;;;18.39;75.36;101380.50;5019486;28;45298;-51
2022/10/17 06:51:10;;;;;;;;;12.75;11.75;;;;;18.50;75.74;101392.69;5019533;28;45378;-48
2022/10/17 06:53:37;;;;;;;;;14.50;11.50;;;;;18.52;75.68;101407.66;5019675;28;45361;-49
2022/10/17 06:56:04;;;;;;;;;18.25;17.75;;;;;18.53;75.56;101409.31;5019342;28;45379;-50
2022/10/17 06:58:32;;;;;;;;;21.00;15.75;;;;;18.53;75.45;101417.41;5019131;28;46346;-47
2022/10/17 07:01:03;;;;;;;;;49.00;36.33;;;;;18.54;75.28;101421.81;5019149;28;45330;-47
2022/10/17 07:03:29;;;;;;;;;40.67;32.00;;;;;18.56;75.50;101414.34;5019489;28;45310;-47
2022/10/17 07:05:55;;;;;;;;;49.67;41.00;;;;;18.50;75.20;101408.84;5019420;28;45537;-48
2022/10/17 07:08:20;;;;;;;;;39.67;35.00;;;;;18.61;75.24;101428.13;5018964;28;46405;-48
2022/10/17 07:10:46;;;;;;;;;47.00;36.00;;;;;18.64;75.14;101441.22;5019012;28;45414;-47
2022/10/17 07:13:11;;;;;;;;;51.00;41.67;;;;;18.68;75.06;101447.09;5018022;28;45480;-50
2022/10/17 07:15:37;;;;;;;;;70.67;52.67;;;;;18.73;74.78;101449.28;5019391;28;45365;-48
2022/10/17 07:18:03;;;;;;;;;65.67;50.33;;;;;18.74;74.80;101453.63;5018492;28;45537;-49
2022/10/17 07:20:28;;;;;;;;;73.00;52.00;;;;;18.85;74.84;101466.69;5018625;28;45337;-51
2022/10/17 07:22:53;;;;;;;;;67.00;52.00;;;;;18.90;74.78;101466.97;5019149;28;45319;-49
2022/10/17 07:25:19;;;;;;;;;49.00;41.00;;;;;18.92;74.28;101481.13;5019248;28;45342;-49
2022/10/17 07:27:44;;;;;;;;;48.67;38.33;;;;;18.94;74.46;101482.59;5018896;28;45314;-47
2022/10/17 07:30:10;;;;;;;;;53.67;44.00;;;;;18.96;74.08;101485.09;5018833;28;45477;-49
2022/10/17 07:32:35;;;;;;;;;45.33;35.33;;;;;18.99;74.28;101495.50;5018870;28;45335;-47
2022/10/17 07:35:00;;;;;;;;;43.67;34.33;;;;;19.00;74.08;101494.47;5019163;28;45399;-51
2022/10/17 07:37:26;;;;;;;;;52.00;40.00;;;;;19.05;74.17;101502.88;5018676;28;46039;-48
2022/10/17 07:39:51;;;;;;;;;42.67;37.67;;;;;19.09;74.02;101508.75;5018705;28;45457;-48
2022/10/17 07:42:16;;;;;;;;;54.33;42.33;;;;;19.14;73.67;101506.34;5019101;28;45369;-50
2022/10/17 07:44:44;;;;;;;;;39.00;31.67;;;;;19.22;73.63;101527.00;5018651;28;45393;-47
2022/10/17 07:47:10;;;;;;;;;28.00;23.00;;;;;19.24;73.58;101524.94;5018498;28;46144;-50
2022/10/17 07:49:41;;;;;;;;;19.50;13.25;;;;;19.33;73.16;101545.41;5018609;28;45413;-51
2022/10/17 07:52:09;;;;;;;;;19.25;14.50;;;;;19.42;73.01;101542.47;5018645;28;45445;-47
2022/10/17 07:54:35;;;;;;;;;15.25;12.75;;;;;19.54;72.88;101550.91;5018853;28;46034;-49
2022/10/17 07:57:00;;;;;;;;;14.00;14.00;;;;;19.65;72.40;101558.56;5018051;28;46399;-48
2022/10/17 07:59:25;;;;;;;;;17.50;15.00;;;;;19.71;71.85;101554.28;5018447;28;45476;-48
2022/10/17 08:01:54;;;;;;;;;12.75;11.50;;;;;19.68;72.15;101555.50;5018606;28;45420;-47
2022/10/17 08:04:19;;;;;;;;;11.00;10.25;;;;;19.72;72.18;101571.31;5018731;28;45250;-48
2022/10/17 08:06:45;;;;;;;;;8.50;8.50;;;;;19.69;72.17;101575.25;5018453;28;45927;-47
2022/10/17 08:09:10;;;;;;;;;13.75;11.25;;;;;19.62;72.47;101575.13;5017874;28;45226;-49
2022/10/17 08:11:36;;;;;;;;;9.50;9.50;;;;;19.56;72.60;101573.16;5016488;28;45856;-49
2022/10/17 08:14:01;;;;;;;;;11.50;8.00;;;;;19.53;72.68;101578.91;5017943;28;45436;-52
2022/10/17 08:16:26;;;;;;;;;15.25;11.50;;;;;19.49;72.79;101576.78;5017365;28;47364;-48
2022/10/17 08:18:52;;;;;;;;;10.75;9.00;;;;;19.48;72.91;101575.94;5013593;28;45419;-50
2022/10/17 08:21:18;;;;;;;;;10.50;10.50;;;;;19.44;73.22;101586.28;5013862;28;45602;-47
2022/10/17 08:23:43;;;;;;;;;12.00;9.75;;;;;19.45;72.88;101587.09;5018006;28;45214;-49
2022/10/17 08:26:12;;;;;;;;;13.50;11.00;;;;;19.48;73.23;101585.91;5017835;28;45287;-48
2022/10/17 08:28:38;;;;;;;;;11.00;9.20;;;;;19.56;72.68;101593.91;5017403;28;45412;-50
2022/10/17 08:31:10;;;;;;;;;11.20;8.60;;;;;19.62;72.92;101601.28;5017982;28;45360;-49
2022/10/17 08:33:36;;;;;;;;;12.00;10.25;;;;;19.55;72.67;101576.88;5017927;28;45549;-49
2022/10/17 08:36:03;;;;;;;;;10.00;9.75;;;;;19.71;72.80;101604.75;5017462;28;47139;-50
2022/10/17 08:38:29;;;;;;;;;10.60;8.80;;;;;19.72;72.59;101611.81;5017940;28;45351;-47
2022/10/17 08:41:01;;;;;;;;;10.00;8.80;;;;;19.72;72.44;101612.66;5017684;28;45368;-47
2022/10/17 08:43:47;;;;;;;;;9.00;8.00;;;;;19.70;72.63;101612.00;5017876;28;45361;-51
2022/10/17 08:46:13;;;;;;;;;11.00;9.50;;;;;19.68;72.70;101622.16;5017398;28;45342;-49
2022/10/17 08:48:42;;;;;;;;;8.60;7.80;;;;;19.66;73.19;101621.50;5017597;28;45420;-50
2022/10/17 08:51:16;;;;;;;;;13.25;10.50;;;;;19.71;72.77;101624.47;5017670;28;45409;-47
2022/10/17 08:53:55;;;;;;;;;9.25;8.75;;;;;19.76;72.85;101627.44;5017795;28;45265;-47
2022/10/17 08:56:23;;;;;;;;;8.50;7.00;;;;;19.82;73.02;101628.59;5029936;28;46596;-50
2022/10/17 08:58:48;;;;;;;;;7.60;7.20;;;;;19.82;72.97;101613.22;5037269;28;45413;-49
2022/10/17 09:01:42;;;;;;;;;13.00;7.50;;;;;19.86;72.94;101621.78;5037320;28;45345;-47
2022/10/17 09:04:08;;;;;;;;;9.75;8.00;;;;;19.87;72.98;101636.97;5037348;28;45428;-48
2022/10/17 09:06:38;;;;;;;;;9.25;8.00;;;;;19.81;72.78;101619.66;5037095;28;45990;-52
2022/10/17 09:09:31;;;;;;;;;18.00;14.00;;;;;19.88;73.18;101636.75;5037495;28;45709;-48
2022/10/17 09:12:21;;;;;;;;;9.20;7.80;;;;;19.96;72.92;101656.59;5037896;28;45308;-52
2022/10/17 09:15:15;;;;;;;;;8.00;7.75;;;;;19.99;73.21;101678.69;5037421;28;45778;-50
2022/10/17 09:17:59;;;;;;;;;9.00;9.00;;;;;19.99;73.50;101694.88;5014632;28;46381;-47
2022/10/17 09:20:31;;;;;;;;;8.40;8.40;;;;;19.96;73.67;101686.31;5037060;28;45332;-46
2022/10/17 09:23:01;;;;;;;;;10.20;10.00;;;;;19.97;74.13;101696.91;5036891;28;45211;-48
2022/10/17 09:25:27;;;;;;;;;10.75;9.00;;;;;19.96;74.61;101705.22;5037171;28;45330;-49
2022/10/17 09:28:13;;;;;;;;;10.50;6.50;;;;;19.92;74.44;101702.88;5036808;28;46403;-50
2022/10/17 09:30:41;;;;;;;;;10.40;9.40;;;;;19.87;74.96;101708.00;5036772;28;45371;-48
2022/10/17 09:33:10;;;;;;;;;12.00;9.75;;;;;19.83;74.62;101705.84;5036879;28;45350;-50
2022/10/17 09:35:37;;;;;;;;;9.25;8.75;;;;;19.83;74.99;101709.38;5035665;28;45515;-48
2022/10/17 09:38:03;;;;;;;;;14.75;8.00;;;;;19.82;75.97;101717.69;5036630;28;46206;-48
2022/10/17 09:40:34;;;;;;;;;9.50;8.00;;;;;19.78;75.67;101714.50;5036583;28;45602;-49
2022/10/17 09:43:05;;;;;;;;;9.80;8.20;;;;;19.73;76.08;101716.94;5036760;28;45339;-49
2022/10/17 09:45:37;;;;;;;;;11.75;11.75;;;;;19.70;76.83;101730.78;5036983;28;45353;-47
2022/10/17 09:48:10;;;;;;;;;12.25;11.00;;;;;19.66;77.24;101729.47;5036414;28;46491;-48
2022/10/17 09:50:36;;;;;;;;;13.60;10.80;;;;;19.61;78.33;101729.19;5036392;28;45422;-48
2022/10/17 09:53:38;;;;;;;;;13.75;11.50;;;;;19.57;78.20;101727.84;5036794;28;45367;-47
2022/10/17 09:56:10;;;;;;;;;14.75;11.00;;;;;19.64;78.96;101726.13;4955646;28;45425;-48
2022/10/17 09:58:47;;;;;;;;;15.75;12.25;;;;;19.63;78.60;101722.56;4955332;28;45287;-47
2022/10/17 10:01:22;;;;;;;;;16.80;10.60;;;;;19.68;78.40;101722.03;4955309;28;45275;-50
2022/10/17 10:04:06;;;;;;;;;16.00;12.75;;;;;19.72;78.86;101722.50;4955617;28;45342;-50
2022/10/17 10:06:32;;;;;;;;;11.00;10.50;;;;;19.66;78.33;101714.09;4955582;28;45482;-47
2022/10/17 10:08:57;;;;;;;;;15.75;12.75;;;;;19.67;78.90;101721.19;4955467;28;45392;-50
2022/10/17 10:11:54;;;;;;;;;15.75;12.75;;;;;19.70;78.95;101725.38;4955166;28;45270;-48
2022/10/17 10:14:27;;;;;;;;;11.75;11.75;;;;;19.67;79.28;101718.47;4955118;28;45501;-50
2022/10/17 10:16:53;;;;;;;;;10.75;9.00;;;;;19.66;79.59;101726.78;4955332;28;45425;-51
2022/10/17 10:19:28;;;;;;;;;14.75;14.75;;;;;19.66;79.87;101741.09;4954807;28;46208;-48
2022/10/17 10:21:58;;;;;;;;;14.50;14.50;;;;;19.66;79.10;101732.16;4955087;28;45360;-51
2022/10/17 10:24:25;;;;;;;;;19.25;16.50;;;;;19.68;80.55;101746.34;4955153;28;45482;-51
2022/10/17 10:26:53;;;;;;;;;19.00;17.25;;;;;19.55;80.76;101740.66;4955270;28;45466;-49
2022/10/17 10:29:21;;;;;;;;;21.75;20.75;;;;;19.66;79.80;101776.19;4967453;28;47219;-50
2022/10/17 10:31:48;;;;;;;;;16.00;15.00;;;;;19.60;80.85;101786.84;5035631;28;45365;-52
2022/10/17 10:34:13;;;;;;;;;14.75;14.75;;;;;19.52;81.61;101793.16;5036243;28;45443;-51
2022/10/17 10:36:45;;;;;;;;;17.50;17.00;;;;;19.50;80.92;101789.78;5036169;28;45355;-50
2022/10/17 10:39:21;;;;;;;;;19.75;16.75;;;;;19.49;81.75;101780.00;5035795;28;46052;-51
2022/10/17 10:41:47;;;;;;;;;19.50;16.25;;;;;19.60;81.64;101778.75;5036029;28;45401;-52
2022/10/17 10:44:17;;;;;;;;;23.25;19.00;;;;;19.61;81.69;101780.47;5035986;28;45324;-48
2022/10/17 10:46:42;;;;;;;;;20.50;17.50;;;;;19.63;81.69;101794.59;5036601;28;45522;-48
2022/10/17 10:49:30;;;;;;;;;26.75;21.25;;;;;19.54;81.73;101796.50;5039363;28;46101;-52
2022/10/17 10:51:59;;;;;;;;;26.00;19.00;;;;;19.52;81.66;101812.03;5039263;28;45411;-51
2022/10/17 10:54:33;;;;;;;;;24.25;21.25;;;;;19.45;81.61;101808.38;5039294;28;45293;-50
2022/10/17 10:57:03;;;;;;;;;21.50;19.50;;;;;19.41;82.93;101813.28;5039246;28;45328;-47
2022/10/17 10:59:41;;;;;;;;;19.75;16.50;;;;;19.34;83.07;101823.13;5038987;28;46616;-48
2022/10/17 11:02:28;;;;;;;;;27.00;21.25;;;;;19.32;83.14;101827.84;5039129;28;45465;-47
2022/10/17 11:05:05;;;;;;;;;28.50;20.50;;;;;19.30;84.12;101815.53;5039336;28;45344;-50
2022/10/17 11:07:39;;;;;;;;;14.50;14.25;;;;;19.26;84.14;101803.47;5039041;28;45167;-49
2022/10/17 11:10:10;;;;;;;;;23.25;17.75;;;;;19.28;84.14;101802.25;5038476;28;46422;-49
2022/10/17 11:12:40;;;;;;;;;20.25;18.00;;;;;19.30;84.61;101800.22;5039044;28;45404;-49
2022/10/17 11:15:34;;;;;;;;;21.25;20.75;;;;;19.32;83.99;101825.16;5038993;28;45481;-55
2022/10/17 11:18:10;;;;;;;;;20.00;16.75;;;;;19.29;84.75;101824.66;5039154;28;45379;-50
2022/10/17 11:21:13;;;;;;;;;19.50;16.25;;;;;19.29;84.37;101828.19;5029543;28;46312;-51
2022/10/17 11:23:58;;;;;;;;;24.25;21.50;;;;;19.29;84.44;101833.59;5018570;28;45371;-50
2022/10/17 11:26:31;;;;;;;;;23.25;22.00;;;;;19.31;84.86;101855.84;5018485;28;45435;-52
2022/10/17 11:29:01;;;;;;;;;19.75;18.75;;;;;19.35;84.91;101841.00;5029161;28;45519;-49